sensor_id;sensor_type;location;lat;lon;timestamp;temperature;humidity
42905;DHT22;28550;51.228;4.528;2024-01-27T09:30:30;11.80;1.00
42905;DHT22;28550;51.228;4.528;2024-01-27T09:32:58;11.20;42.90
42905;DHT22;28550;51.228;4.528;2024-01-27T09:35:29;11.80;1.00
42905;DHT22;28550;51.228;4.528;2024-01-27T09:37:55;11.70;1.00
42905;DHT22;28550;51.228;4.528;2024-01-27T09:40:22;10.90;1.00
42905;DHT22;28550;51.228;4.528;2024-01-27T09:42:52;10.10;1.00
42905;DHT22;28550;51.228;4.528;2024-01-27T09:48:26;8.90;1.00
42905;DHT22;28550;51.228;4.528;2024-01-27T09:50:58;8.40;99.90
42905;DHT22;28550;51.228;4.528;2024-01-27T09:53:34;7.90;1.00
42905;DHT22;28550;51.228;4.528;2024-01-27T09:56:03;7.60;1.00
42905;DHT22;28550;51.228;4.528;2024-01-27T10:06:38;7.20;1.00
42905;DHT22;28550;51.228;4.528;2024-01-27T10:09:49;7.20;3.00
42905;DHT22;28550;51.228;4.528;2024-01-27T10:12:32;8.30;1.00
42905;DHT22;28550;51.228;4.528;2024-01-27T10:15:17;9.70;1.00
42905;DHT22;28550;51.228;4.528;2024-01-27T10:44:20;12.90;10.80
42905;DHT22;28550;51.228;4.528;2024-01-27T10:58:04;10.20;1.00
42905;DHT22;28550;51.228;4.528;2024-01-27T11:04:03;9.20;1.00
42905;DHT22;28550;51.228;4.528;2024-01-27T11:06:34;8.80;1.00
42905;DHT22;28550;51.228;4.528;2024-01-27T11:09:02;8.70;90.10
42905;DHT22;28550;51.228;4.528;2024-01-27T11:11:31;8.60;99.90
42905;DHT22;28550;51.228;4.528;2024-01-27T11:14:16;8.70;99.90
42905;DHT22;28550;51.228;4.528;2024-01-27T11:17:58;8.70;99.90
42905;DHT22;28550;51.228;4.528;2024-01-27T11:20:48;8.70;99.90
42905;DHT22;28550;51.228;4.528;2024-01-27T11:23:36;8.80;99.90
42905;DHT22;28550;51.228;4.528;2024-01-27T11:26:36;8.80;99.90
42905;DHT22;28550;51.228;4.528;2024-01-27T11:32:30;9.30;99.90
42905;DHT22;28550;51.228;4.528;2024-01-27T11:51:15;11.00;1.00
42905;DHT22;28550;51.228;4.528;2024-01-27T11:53:56;11.50;1.00
42905;DHT22;28550;51.228;4.528;2024-01-27T11:56:22;11.50;1.00
42905;DHT22;28550;51.228;4.528;2024-01-27T11:58:49;11.50;1.00
42905;DHT22;28550;51.228;4.528;2024-01-27T12:01:27;11.60;99.90
42905;DHT22;28550;51.228;4.528;2024-01-27T12:04:03;11.70;99.90
42905;DHT22;28550;51.228;4.528;2024-01-27T12:06:47;11.70;99.90
42905;DHT22;28550;51.228;4.528;2024-01-27T12:09:13;11.70;16.50
42905;DHT22;28550;51.228;4.528;2024-01-27T12:11:43;11.60;1.00
42905;DHT22;28550;51.228;4.528;2024-01-27T12:14:39;11.70;1.00
42905;DHT22;28550;51.228;4.528;2024-01-27T12:17:08;11.80;1.00
42905;DHT22;28550;51.228;4.528;2024-01-27T12:19:35;12.00;1.00
42905;DHT22;28550;51.228;4.528;2024-01-27T12:22:02;11.90;1.00
42905;DHT22;28550;51.228;4.528;2024-01-27T12:24:35;11.90;99.90
42905;DHT22;28550;51.228;4.528;2024-01-27T12:27:17;11.80;99.90
42905;DHT22;28550;51.228;4.528;2024-01-27T12:29:48;11.60;99.90
42905;DHT22;28550;51.228;4.528;2024-01-27T12:32:15;11.70;99.90
42905;DHT22;28550;51.228;4.528;2024-01-27T12:34:42;11.90;99.90
42905;DHT22;28550;51.228;4.528;2024-01-27T12:37:14;12.00;74.40
42905;DHT22;28550;51.228;4.528;2024-01-27T12:39:44;12.40;99.90
42905;DHT22;28550;51.228;4.528;2024-01-27T12:42:21;13.20;1.00
42905;DHT22;28550;51.228;4.528;2024-01-27T12:44:50;13.50;99.90
42905;DHT22;28550;51.228;4.528;2024-01-27T12:47:16;14.20;99.90
42905;DHT22;28550;51.228;4.528;2024-01-27T12:49:45;15.10;1.00
42905;DHT22;28550;51.228;4.528;2024-01-27T12:52:11;15.70;1.00
42905;DHT22;28550;51.228;4.528;2024-01-27T12:54:37;15.90;99.90
42905;DHT22;28550;51.228;4.528;2024-01-27T13:00:38;15.20;99.90
42905;DHT22;28550;51.228;4.528;2024-01-27T13:03:13;14.20;99.90
42905;DHT22;28550;51.228;4.528;2024-01-27T13:06:05;13.70;99.90
42905;DHT22;28550;51.228;4.528;2024-01-27T13:08:34;12.70;99.90
42905;DHT22;28550;51.228;4.528;2024-01-27T13:11:03;12.20;99.90
42905;DHT22;28550;51.228;4.528;2024-01-27T13:16:28;11.90;1.00
42905;DHT22;28550;51.228;4.528;2024-01-27T13:19:00;12.00;1.00
42905;DHT22;28550;51.228;4.528;2024-01-27T13:21:46;12.20;1.00
42905;DHT22;28550;51.228;4.528;2024-01-27T13:26:51;12.60;1.00
42905;DHT22;28550;51.228;4.528;2024-01-27T13:29:19;12.40;1.00
42905;DHT22;28550;51.228;4.528;2024-01-27T13:31:57;12.40;99.90
42905;DHT22;28550;51.228;4.528;2024-01-27T13:37:53;12.60;1.00
42905;DHT22;28550;51.228;4.528;2024-01-27T13:40:19;12.40;99.90
42905;DHT22;28550;51.228;4.528;2024-01-27T13:42:44;12.30;99.90
42905;DHT22;28550;51.228;4.528;2024-01-27T13:45:13;12.40;99.90
42905;DHT22;28550;51.228;4.528;2024-01-27T13:47:39;12.70;99.90
42905;DHT22;28550;51.228;4.528;2024-01-27T13:50:09;12.70;99.90
42905;DHT22;28550;51.228;4.528;2024-01-27T13:52:37;12.60;99.90
42905;DHT22;28550;51.228;4.528;2024-01-27T13:55:04;13.00;99.90
42905;DHT22;28550;51.228;4.528;2024-01-27T13:57:35;13.20;99.90
42905;DHT22;28550;51.228;4.528;2024-01-27T14:00:19;13.60;99.90
42905;DHT22;28550;51.228;4.528;2024-01-27T14:02:47;14.30;99.90
42905;DHT22;28550;51.228;4.528;2024-01-27T14:05:15;15.10;99.90
42905;DHT22;28550;51.228;4.528;2024-01-27T14:07:47;15.40;64.30
42905;DHT22;28550;51.228;4.528;2024-01-27T14:10:13;16.00;53.90
42905;DHT22;28550;51.228;4.528;2024-01-27T14:12:40;15.70;1.00
42905;DHT22;28550;51.228;4.528;2024-01-27T14:15:09;15.90;1.00
42905;DHT22;28550;51.228;4.528;2024-01-27T14:17:37;16.00;1.00
42905;DHT22;28550;51.228;4.528;2024-01-27T14:20:18;15.90;1.00
42905;DHT22;28550;51.228;4.528;2024-01-27T14:22:58;15.40;1.00
42905;DHT22;28550;51.228;4.528;2024-01-27T14:25:27;15.30;1.00
42905;DHT22;28550;51.228;4.528;2024-01-27T14:57:19;15.40;1.00
42905;DHT22;28550;51.228;4.528;2024-01-27T15:29:59;10.60;99.90
42905;DHT22;28550;51.228;4.528;2024-01-27T15:32:32;10.50;1.00
42905;DHT22;28550;51.228;4.528;2024-01-27T15:35:15;10.30;1.00
42905;DHT22;28550;51.228;4.528;2024-01-27T15:37:52;10.10;1.00
42905;DHT22;28550;51.228;4.528;2024-01-27T15:40:32;9.80;26.00
42905;DHT22;28550;51.228;4.528;2024-01-27T15:43:34;9.50;99.90
42905;DHT22;28550;51.228;4.528;2024-01-27T15:49:33;9.30;1.00
42905;DHT22;28550;51.228;4.528;2024-01-27T15:52:19;9.20;1.00
42905;DHT22;28550;51.228;4.528;2024-01-27T15:55:09;9.00;99.90
42905;DHT22;28550;51.228;4.528;2024-01-27T16:01:01;8.60;99.90
42905;DHT22;28550;51.228;4.528;2024-01-27T16:04:12;8.40;99.90
42905;DHT22;28550;51.228;4.528;2024-01-27T16:06:48;8.20;1.00
42905;DHT22;28550;51.228;4.528;2024-01-27T16:09:16;8.10;1.00
42905;DHT22;28550;51.228;4.528;2024-01-27T16:11:46;8.00;1.00
42905;DHT22;28550;51.228;4.528;2024-01-27T16:14:22;7.70;1.00
42905;DHT22;28550;51.228;4.528;2024-01-27T16:17:10;7.50;1.00
42905;DHT22;28550;51.228;4.528;2024-01-27T16:19:48;7.40;1.00
42905;DHT22;28550;51.228;4.528;2024-01-27T16:22:34;7.20;99.90
42905;DHT22;28550;51.228;4.528;2024-01-27T16:25:18;7.20;99.90
42905;DHT22;28550;51.228;4.528;2024-01-27T16:27:46;7.00;99.90
42905;DHT22;28550;51.228;4.528;2024-01-27T16:30:20;6.80;1.00
42905;DHT22;28550;51.228;4.528;2024-01-27T16:33:06;6.70;1.00
42905;DHT22;28550;51.228;4.528;2024-01-27T17:09:56;6.70;1.00
42905;DHT22;28550;51.228;4.528;2024-01-27T17:13:04;6.70;1.00
42905;DHT22;28550;51.228;4.528;2024-01-27T17:15:50;6.70;1.00
42905;DHT22;28550;51.228;4.528;2024-01-27T17:18:28;6.60;1.00
42905;DHT22;28550;51.228;4.528;2024-01-27T17:21:39;6.60;1.00
42905;DHT22;28550;51.228;4.528;2024-01-27T17:24:38;6.70;1.00
42905;DHT22;28550;51.228;4.528;2024-01-27T17:27:07;6.60;1.00
42905;DHT22;28550;51.228;4.528;2024-01-27T17:30:31;6.50;1.00
42905;DHT22;28550;51.228;4.528;2024-01-27T17:33:51;6.40;1.00
42905;DHT22;28550;51.228;4.528;2024-01-27T17:36:37;6.20;8.50
